createdAt,value
2018-04-20T00:00:50.836Z,101879.45
2018-04-20T00:03:16.693Z,101880.30
2018-04-20T00:05:42.512Z,101887.59
2018-04-20T00:08:08.391Z,101885.88
2018-04-20T00:10:34.236Z,101883.78
2018-04-20T00:13:00.092Z,101879.83
2018-04-20T00:15:25.919Z,101878.66
2018-04-20T00:17:51.779Z,101878.22
2018-04-20T00:20:17.613Z,101872.92
2018-04-20T00:22:43.458Z,101866.77
2018-04-20T00:25:09.324Z,101869.85
2018-04-20T00:27:35.207Z,101864.21
2018-04-20T00:30:01.047Z,101865.12
2018-04-20T00:32:26.902Z,101860.87
2018-04-20T00:34:52.760Z,101866.12
2018-04-20T00:37:18.613Z,101859.63
2018-04-20T00:39:44.464Z,101860.67
2018-04-20T00:42:10.316Z,101853.33
2018-04-20T00:44:36.199Z,101850.20
2018-04-20T00:47:02.046Z,101849.25
2018-04-20T00:49:27.896Z,101842.30
2018-04-20T00:51:53.738Z,101845.02
2018-04-20T00:54:23.542Z,101840.25
2018-04-20T00:56:49.391Z,101839.92
2018-04-20T00:59:15.239Z,101832.95
2018-04-20T01:01:41.104Z,101839.12
2018-04-20T01:04:06.941Z,101832.64
2018-04-20T01:06:32.779Z,101835.27
2018-04-20T01:08:58.610Z,101837.14
2018-04-20T01:11:24.478Z,101838.45
2018-04-20T01:13:50.331Z,101830.55
2018-04-20T01:16:16.179Z,101828.82
2018-04-20T01:18:42.032Z,101831.47
2018-04-20T01:21:07.865Z,101832.39
2018-04-20T01:23:33.719Z,101825.82
2018-04-20T01:25:59.553Z,101825.42
2018-04-20T01:28:25.403Z,101828.09
2018-04-20T01:30:51.265Z,101824.96
2018-04-20T01:33:17.100Z,101824.15
2018-04-20T01:35:42.946Z,101821.59
2018-04-20T01:38:08.803Z,101819.34
2018-04-20T01:40:34.628Z,101824.77
2018-04-20T01:43:00.451Z,101823.42
2018-04-20T01:45:26.340Z,101818.68
2018-04-20T01:47:52.225Z,101824.55
2018-04-20T01:50:18.054Z,101813.55
2018-04-20T01:52:43.887Z,101813.14
2018-04-20T01:55:09.734Z,101809.30
2018-04-20T01:57:35.588Z,101813.33
2018-04-20T02:00:01.435Z,101810.39
2018-04-20T02:02:27.273Z,101805.50
2018-04-20T02:04:53.151Z,101795.03
2018-04-20T02:07:19.007Z,101805.61
2018-04-20T02:09:44.835Z,101798.88
2018-04-20T02:12:10.661Z,101802.08
2018-04-20T02:14:36.499Z,101797.76
2018-04-20T02:17:02.360Z,101796.55
2018-04-20T02:19:28.191Z,101794.79
2018-04-20T02:21:54.039Z,101788.25
2018-04-20T02:24:19.869Z,101793.56
2018-04-20T02:26:45.697Z,101789.63
2018-04-20T02:29:11.535Z,101787.05
2018-04-20T02:31:37.419Z,101785.80
2018-04-20T02:34:03.250Z,101783.16
2018-04-20T02:36:29.092Z,101783.63
2018-04-20T02:38:54.963Z,101784.13
2018-04-20T02:41:20.806Z,101778.42
2018-04-20T02:43:46.671Z,101782.45
2018-04-20T02:46:14.154Z,101782.42
2018-04-20T02:48:40.020Z,101778.95
2018-04-20T02:51:05.869Z,101774.62
2018-04-20T02:53:31.714Z,101775.48
2018-04-20T02:55:57.546Z,101773.75
2018-04-20T02:58:23.372Z,101771.63
2018-04-20T03:00:49.200Z,101772.02
2018-04-20T03:03:15.029Z,101762.92
2018-04-20T03:05:40.880Z,101769.47
2018-04-20T03:08:06.723Z,101763.33
2018-04-20T03:10:32.634Z,101760.75
2018-04-20T03:12:58.429Z,101765.52
2018-04-20T03:15:24.288Z,101755.96
2018-04-20T03:17:50.148Z,101755.65
2018-04-20T03:20:16.004Z,101752.20
2018-04-20T03:22:41.843Z,101753.09
2018-04-20T03:25:07.675Z,101747.52
2018-04-20T03:27:33.542Z,101749.22
2018-04-20T03:29:59.389Z,101745.76
2018-04-20T03:32:25.246Z,101745.41
2018-04-20T03:34:51.078Z,101745.08
2018-04-20T03:37:16.913Z,101743.72
2018-04-20T03:39:42.760Z,101749.48
2018-04-20T03:42:08.595Z,101741.64
2018-04-20T03:44:34.486Z,101743.36
2018-04-20T03:47:00.344Z,101740.00
2018-04-20T03:49:26.237Z,101744.81
2018-04-20T03:51:52.100Z,101746.55
2018-04-20T03:54:17.950Z,101736.47
2018-04-20T03:56:43.808Z,101739.55
2018-04-20T03:59:09.649Z,101743.06
2018-04-20T04:01:35.514Z,101742.64
2018-04-20T04:04:01.363Z,101740.02
2018-04-20T04:06:27.202Z,101744.48
2018-04-20T04:08:53.066Z,101743.15
2018-04-20T04:11:18.930Z,101744.05
2018-04-20T04:13:44.759Z,101742.69
2018-04-20T04:16:10.657Z,101738.72
2018-04-20T04:18:48.911Z,101738.66
2018-04-20T04:21:23.805Z,101735.14
2018-04-20T04:24:01.951Z,101728.99
2018-04-20T04:26:40.143Z,101730.78
2018-04-20T04:29:05.969Z,101727.73
2018-04-20T04:31:31.817Z,101730.34
2018-04-20T04:33:57.658Z,101728.61
2018-04-20T04:36:23.517Z,101729.92
2018-04-20T04:38:49.365Z,101728.61
2018-04-20T04:41:15.231Z,101728.17
2018-04-20T04:43:41.092Z,101734.38
2018-04-20T04:46:06.949Z,101726.03
2018-04-20T04:48:32.804Z,101726.91
2018-04-20T04:50:58.648Z,101727.80
2018-04-20T04:53:24.500Z,101726.43
2018-04-20T04:55:50.353Z,101728.20
2018-04-20T04:58:16.215Z,101721.10
2018-04-20T05:00:42.067Z,101727.66
2018-04-20T05:03:07.911Z,101728.98
2018-04-20T05:05:33.762Z,101724.98
2018-04-20T05:07:59.606Z,101730.14
2018-04-20T05:10:25.454Z,101719.20
2018-04-20T05:12:51.313Z,101717.89
2018-04-20T05:15:17.183Z,101722.27
2018-04-20T05:17:43.039Z,101715.13
2018-04-20T05:20:08.925Z,101719.37
2018-04-20T05:22:34.773Z,101706.94
2018-04-20T05:25:00.640Z,101715.23
2018-04-20T05:27:26.495Z,101720.79
2018-04-20T05:29:52.329Z,101721.13
2018-04-20T05:32:18.179Z,101711.95
2018-04-20T05:34:44.015Z,101713.49
2018-04-20T05:37:09.866Z,101717.38
2018-04-20T05:39:35.701Z,101708.86
2018-04-20T05:42:01.559Z,101714.03
2018-04-20T05:44:27.435Z,101717.36
2018-04-20T05:46:53.310Z,101708.56
2018-04-20T05:49:19.165Z,101713.23
2018-04-20T05:51:45.026Z,101707.80
2018-04-20T05:54:10.873Z,101707.20
2018-04-20T05:56:36.758Z,101706.55
2018-04-20T05:59:02.632Z,101702.06
2018-04-20T06:04:28.402Z,101697.67
2018-04-20T06:06:54.291Z,101698.34
2018-04-20T06:09:20.166Z,101699.84
2018-04-20T06:11:46.037Z,101693.97
2018-04-20T06:14:11.939Z,101687.73
2018-04-20T06:16:37.787Z,101682.20
2018-04-20T06:19:03.656Z,101685.61
2018-04-20T06:21:29.542Z,101683.64
2018-04-20T06:23:55.398Z,101681.23
2018-04-20T06:26:21.250Z,101682.36
2018-04-20T06:28:47.138Z,101670.31
2018-04-20T06:31:12.975Z,101669.58
2018-04-20T06:33:38.828Z,101672.03
2018-04-20T06:36:04.648Z,101675.31
2018-04-20T06:38:30.493Z,101667.77
2018-04-20T06:40:56.333Z,101669.43
2018-04-20T06:43:22.154Z,101660.21
2018-04-20T06:45:48.010Z,101660.70
2018-04-20T06:48:13.837Z,101655.33
2018-04-20T06:50:39.681Z,101658.99
2018-04-20T06:53:05.512Z,101655.83
2018-04-20T06:55:31.365Z,101650.80
2018-04-20T06:57:57.211Z,101655.13
2018-04-20T07:00:23.058Z,101651.57
2018-04-20T07:02:48.910Z,101652.72
2018-04-20T07:05:14.787Z,101658.52
2018-04-20T07:07:40.664Z,101653.03
2018-04-20T07:10:06.508Z,101649.16
2018-04-20T07:12:32.341Z,101654.33
2018-04-20T07:14:58.204Z,101650.61
2018-04-20T07:17:24.056Z,101644.61
2018-04-20T07:19:49.902Z,101640.09
2018-04-20T07:22:15.765Z,101636.52
2018-04-20T07:24:41.640Z,101637.05
2018-04-20T07:27:07.495Z,101634.68
2018-04-20T07:29:33.347Z,101637.03
2018-04-20T07:31:59.201Z,101629.53
2018-04-20T07:34:25.053Z,101632.20
2018-04-20T07:36:50.882Z,101629.67
2018-04-20T07:39:16.742Z,101629.58
2018-04-20T07:41:42.581Z,101626.59
2018-04-20T07:44:08.430Z,101621.11
2018-04-20T07:46:34.264Z,101620.98
2018-04-20T07:49:00.119Z,101622.68
2018-04-20T07:51:25.971Z,101628.84
2018-04-20T07:53:51.826Z,101622.98
2018-04-20T07:56:17.649Z,101625.09
2018-04-20T07:58:43.471Z,101616.62
2018-04-20T08:01:09.339Z,101617.79
2018-04-20T08:03:35.159Z,101614.30
2018-04-20T08:06:01.020Z,101609.49
2018-04-20T08:08:26.870Z,101609.90
2018-04-20T08:10:52.722Z,101608.45
2018-04-20T08:13:18.564Z,101603.12
2018-04-20T08:15:44.420Z,101613.39
2018-04-20T08:18:10.260Z,101612.31
2018-04-20T08:20:36.101Z,101613.96
2018-04-20T08:23:01.968Z,101607.52
2018-04-20T08:25:27.805Z,101613.52
2018-04-20T08:27:53.710Z,101607.77
2018-04-20T08:30:19.552Z,101614.80
2018-04-20T08:32:45.427Z,101610.19
2018-04-20T08:35:11.261Z,101614.11
2018-04-20T08:37:37.092Z,101612.47
2018-04-20T08:40:02.964Z,101615.01
2018-04-20T08:42:28.812Z,101613.80
2018-04-20T08:44:54.679Z,101616.54
2018-04-20T08:47:20.554Z,101606.20
2018-04-20T08:49:46.406Z,101610.22
2018-04-20T08:52:12.261Z,101607.43
2018-04-20T08:54:38.118Z,101608.18
2018-04-20T08:57:04.032Z,101608.16
2018-04-20T08:59:29.876Z,101606.20
2018-04-20T09:01:55.724Z,101608.58
2018-04-20T09:04:21.595Z,101606.86
2018-04-20T09:06:47.430Z,101602.80
2018-04-20T09:09:13.270Z,101594.00
2018-04-20T09:11:39.126Z,101602.44
2018-04-20T09:14:04.960Z,101599.98
2018-04-20T09:16:30.806Z,101600.17
2018-04-20T09:18:56.651Z,101600.11
2018-04-20T09:21:22.503Z,101593.30
2018-04-20T09:23:48.359Z,101590.83
2018-04-20T09:26:14.212Z,101595.08
2018-04-20T09:28:40.055Z,101587.98
2018-04-20T09:31:05.913Z,101593.53
2018-04-20T09:33:31.773Z,101584.20
2018-04-20T09:35:57.637Z,101585.98
2018-04-20T09:38:23.466Z,101588.98
2018-04-20T09:40:49.306Z,101583.72
2018-04-20T09:43:15.172Z,101581.81
2018-04-20T09:45:41.023Z,101574.25
2018-04-20T09:48:06.895Z,101577.05
2018-04-20T09:50:32.719Z,101584.12
2018-04-20T09:52:58.567Z,101573.82
2018-04-20T09:55:24.399Z,101581.75
2018-04-20T09:57:50.263Z,101582.28
2018-04-20T10:00:17.899Z,101577.20
2018-04-20T10:02:45.746Z,101579.01
2018-04-20T10:05:11.629Z,101576.97
2018-04-20T10:07:37.466Z,101578.48
2018-04-20T10:10:03.317Z,101572.43
2018-04-20T10:12:29.179Z,101576.78
2018-04-20T10:14:55.022Z,101575.62
2018-04-20T10:17:20.834Z,101565.69
2018-04-20T10:19:46.690Z,101560.80
2018-04-20T10:22:12.546Z,101560.01
2018-04-20T10:24:38.419Z,101557.34
2018-04-20T10:27:04.272Z,101559.72
2018-04-20T10:29:30.129Z,101555.63
2018-04-20T10:31:55.981Z,101561.90
2018-04-20T10:34:21.838Z,101562.27
2018-04-20T10:36:47.707Z,101555.37
2018-04-20T10:39:13.530Z,101553.73
2018-04-20T10:41:39.387Z,101550.85
2018-04-20T10:44:05.252Z,101557.20
2018-04-20T10:46:31.091Z,101563.55
2018-04-20T10:48:57.046Z,101550.20
2018-04-20T10:51:22.885Z,101545.73
2018-04-20T10:53:48.729Z,101544.90
2018-04-20T10:56:14.561Z,101548.55
2018-04-20T10:58:40.452Z,101543.19
2018-04-20T11:01:06.280Z,101545.57
2018-04-20T11:03:32.147Z,101538.66
2018-04-20T11:05:58.000Z,101533.28
2018-04-20T11:08:23.847Z,101539.43
2018-04-20T11:10:49.700Z,101529.85
2018-04-20T11:13:15.549Z,101536.97
2018-04-20T11:15:41.391Z,101527.00
2018-04-20T11:18:07.235Z,101533.73
2018-04-20T11:20:33.116Z,101525.11
2018-04-20T11:22:58.969Z,101523.00
2018-04-20T11:25:24.831Z,101515.81
2018-04-20T11:27:50.687Z,101517.16
2018-04-20T11:30:16.555Z,101513.78
2018-04-20T11:32:42.410Z,101510.81
2018-04-20T11:35:08.251Z,101507.52
2018-04-20T11:37:34.127Z,101504.20
2018-04-20T11:39:59.976Z,101501.03
2018-04-20T11:42:25.852Z,101500.25
2018-04-20T11:44:51.699Z,101506.00
2018-04-20T11:47:17.535Z,101498.67
2018-04-20T11:49:43.418Z,101492.53
2018-04-20T11:52:09.282Z,101500.31
2018-04-20T11:54:35.156Z,101496.69
2018-04-20T11:57:00.996Z,101494.18
2018-04-20T11:59:26.864Z,101490.20
2018-04-20T12:01:52.704Z,101489.75
2018-04-20T12:04:18.575Z,101483.25
2018-04-20T12:06:44.418Z,101484.44
2018-04-20T12:09:10.328Z,101485.40
2018-04-20T12:11:36.203Z,101481.78
2018-04-20T12:14:02.043Z,101478.45
2018-04-20T12:16:27.909Z,101477.98
2018-04-20T12:18:53.762Z,101476.47
2018-04-20T12:21:19.684Z,101472.44
2018-04-20T12:23:46.075Z,101474.80
2018-04-20T12:26:11.925Z,101470.89
2018-04-20T12:28:37.767Z,101468.95
2018-04-20T12:31:03.665Z,101465.15
2018-04-20T12:33:29.534Z,101458.31
2018-04-20T12:35:55.403Z,101456.13
2018-04-20T12:38:21.269Z,101454.34
2018-04-20T12:40:47.127Z,101456.91
2018-04-20T12:43:12.982Z,101444.06
2018-04-20T12:45:38.904Z,101440.94
2018-04-20T12:48:04.739Z,101447.65
2018-04-20T12:50:30.591Z,101433.54
2018-04-20T12:52:56.451Z,101428.92
2018-04-20T12:55:22.324Z,101432.27
2018-04-20T12:57:48.188Z,101428.23
2018-04-20T13:00:14.867Z,101419.77
2018-04-20T13:02:40.713Z,101419.18
2018-04-20T13:05:06.588Z,101402.08
2018-04-20T13:07:32.441Z,101409.59
2018-04-20T13:09:58.286Z,101396.41
2018-04-20T13:12:24.136Z,101411.28
2018-04-20T13:14:49.994Z,101404.66
2018-04-20T13:17:15.853Z,101403.75
2018-04-20T13:19:41.701Z,101400.28
2018-04-20T13:22:07.610Z,101397.25
2018-04-20T13:24:33.459Z,101394.60
2018-04-20T13:26:59.308Z,101390.89
2018-04-20T13:29:25.163Z,101386.83
2018-04-20T13:31:51.029Z,101389.16
2018-04-20T13:34:16.894Z,101381.44
2018-04-20T13:36:42.782Z,101377.27
2018-04-20T13:39:08.623Z,101369.02
2018-04-20T13:41:34.485Z,101373.61
2018-04-20T13:44:00.347Z,101367.68
2018-04-20T13:46:26.219Z,101357.20
2018-04-20T13:48:52.100Z,101354.33
2018-04-20T13:51:17.943Z,101352.09
2018-04-20T13:53:43.810Z,101352.57
2018-04-20T13:56:09.647Z,101350.77
2018-04-20T13:58:35.493Z,101347.17
2018-04-20T14:01:01.345Z,101346.67
2018-04-20T14:03:27.223Z,101335.09
2018-04-20T14:05:53.073Z,101332.59
2018-04-20T14:08:18.926Z,101335.10
2018-04-20T14:10:44.789Z,101334.09
2018-04-20T14:13:10.626Z,101333.25
2018-04-20T14:15:36.483Z,101328.45
2018-04-20T14:18:02.356Z,101319.45
2018-04-20T14:20:28.271Z,101320.98
2018-04-20T14:22:54.124Z,101326.40
2018-04-20T14:25:19.994Z,101317.64
2018-04-20T14:27:45.866Z,101307.27
2018-04-20T14:30:11.744Z,101306.17
2018-04-20T14:32:37.607Z,101307.36
2018-04-20T14:35:03.640Z,101304.03
2018-04-20T14:37:29.510Z,101306.69
2018-04-20T14:39:55.385Z,101306.07
2018-04-20T14:42:21.255Z,101302.74
2018-04-20T14:44:47.212Z,101298.19
2018-04-20T14:47:13.048Z,101299.05
2018-04-20T14:49:38.907Z,101298.36
2018-04-20T14:52:04.766Z,101287.08
2018-04-20T14:54:30.625Z,101286.92
2018-04-20T14:56:56.486Z,101289.62
2018-04-20T14:59:22.392Z,101287.25
2018-04-20T15:01:48.298Z,101276.33
2018-04-20T15:04:14.119Z,101284.20
2018-04-20T15:06:39.968Z,101278.16
2018-04-20T15:09:05.834Z,101279.60
2018-04-20T15:11:31.702Z,101272.41
2018-04-20T15:13:57.542Z,101278.00
2018-04-20T15:16:23.385Z,101275.03
2018-04-20T15:18:49.242Z,101276.22
2018-04-20T15:21:15.097Z,101270.13
2018-04-20T15:23:40.968Z,101270.84
2018-04-20T15:26:06.815Z,101271.45
2018-04-20T15:28:32.667Z,101263.55
2018-04-20T15:30:58.540Z,101262.19
2018-04-20T15:33:24.391Z,101256.32
2018-04-20T15:35:50.255Z,101264.13
2018-04-20T15:38:16.111Z,101255.01
2018-04-20T15:40:41.971Z,101251.55
2018-04-20T15:43:07.820Z,101255.64
2018-04-20T15:45:33.704Z,101253.47
2018-04-20T15:47:59.541Z,101248.12
2018-04-20T15:50:25.430Z,101242.36
2018-04-20T15:52:51.266Z,101235.66
2018-04-20T15:55:17.124Z,101236.06
2018-04-20T15:57:42.967Z,101226.53
2018-04-20T16:00:08.843Z,101231.25
2018-04-20T16:02:34.695Z,101232.06
2018-04-20T16:05:01.311Z,101228.61
2018-04-20T16:07:27.164Z,101220.70
2018-04-20T16:09:53.021Z,101228.69
2018-04-20T16:12:18.915Z,101217.23
2018-04-20T16:14:44.751Z,101211.95
2018-04-20T16:17:10.609Z,101216.89
2018-04-20T16:19:36.464Z,101210.85
2018-04-20T16:22:02.335Z,101203.63
2018-04-20T16:24:28.189Z,101197.42
2018-04-20T16:26:54.062Z,101197.77
2018-04-20T16:29:19.907Z,101193.37
2018-04-20T16:31:45.795Z,101192.82
2018-04-20T16:34:11.676Z,101190.53
2018-04-20T16:36:37.527Z,101185.61
2018-04-20T16:39:03.520Z,101187.03
2018-04-20T16:41:29.319Z,101180.71
2018-04-20T16:43:55.179Z,101179.14
2018-04-20T16:46:21.046Z,101182.86
2018-04-20T16:48:46.890Z,101170.98
2018-04-20T16:51:12.731Z,101170.72
2018-04-20T16:53:38.614Z,101170.92
2018-04-20T16:56:04.468Z,101171.11
2018-04-20T16:58:30.332Z,101169.17
2018-04-20T17:00:56.186Z,101164.72
2018-04-20T17:03:22.027Z,101174.01
2018-04-20T17:05:47.959Z,101166.38
2018-04-20T17:08:13.847Z,101163.70
2018-04-20T17:10:39.704Z,101164.15
2018-04-20T17:13:05.547Z,101162.78
2018-04-20T17:15:31.424Z,101161.09
2018-04-20T17:17:57.287Z,101155.37
2018-04-20T17:20:23.148Z,101161.27
2018-04-20T17:22:49.029Z,101159.75
2018-04-20T17:25:14.894Z,101160.14
2018-04-20T17:27:40.738Z,101156.55
2018-04-20T17:30:06.566Z,101153.31
2018-04-20T17:32:32.471Z,101157.30
2018-04-20T17:35:00.418Z,101159.66
2018-04-20T17:37:26.323Z,101159.25
2018-04-20T17:39:52.166Z,101155.41
2018-04-20T17:42:18.067Z,101154.43
2018-04-20T17:44:43.934Z,101159.20
2018-04-20T17:47:09.774Z,101150.51
2018-04-20T17:49:35.640Z,101157.97
2018-04-20T17:52:01.462Z,101150.18
2018-04-20T17:54:27.344Z,101149.54
2018-04-20T17:56:53.179Z,101151.22
2018-04-20T17:59:19.045Z,101154.03
2018-04-20T18:01:44.914Z,101156.45
2018-04-20T18:04:10.785Z,101157.95
2018-04-20T18:06:36.668Z,101162.42
2018-04-20T18:09:02.553Z,101157.12
2018-04-20T18:11:28.410Z,101160.16
2018-04-20T18:13:54.285Z,101160.54
2018-04-20T18:16:20.149Z,101162.64
2018-04-20T18:18:47.703Z,101164.66
2018-04-20T18:21:13.616Z,101167.19
2018-04-20T18:23:39.483Z,101171.04
2018-04-20T18:26:05.340Z,101171.56
2018-04-20T18:28:31.238Z,101177.22
2018-04-20T18:30:57.259Z,101168.95
2018-04-20T18:33:23.099Z,101178.06
2018-04-20T18:35:48.990Z,101181.90
2018-04-20T18:38:14.845Z,101181.47
2018-04-20T18:40:40.689Z,101178.98
2018-04-20T18:43:06.530Z,101184.22
2018-04-20T18:45:32.421Z,101191.19
2018-04-20T18:47:58.297Z,101193.62
2018-04-20T18:50:24.208Z,101199.02
2018-04-20T18:52:50.105Z,101198.41
2018-04-20T18:55:15.953Z,101208.48
2018-04-20T18:57:41.845Z,101208.72
2018-04-20T19:00:07.721Z,101209.47
2018-04-20T19:02:33.602Z,101200.55
2018-04-20T19:04:59.528Z,101198.55
2018-04-20T19:07:25.421Z,101198.31
2018-04-20T19:09:51.286Z,101204.35
2018-04-20T19:12:17.169Z,101207.45
2018-04-20T19:14:43.081Z,101211.95
2018-04-20T19:17:08.970Z,101206.55
2018-04-20T19:19:34.853Z,101205.95
2018-04-20T19:22:00.779Z,101203.72
2018-04-20T19:24:26.687Z,101211.92
2018-04-20T19:26:53.121Z,101207.64
2018-04-20T19:29:18.980Z,101203.03
2018-04-20T19:31:44.886Z,101208.09
2018-04-20T19:34:11.140Z,101201.38
2018-04-20T19:36:37.039Z,101199.83
2018-04-20T19:39:03.019Z,101205.41
2018-04-20T19:41:28.891Z,101206.10
2018-04-20T19:43:54.864Z,101199.87
2018-04-20T19:46:20.811Z,101202.09
2018-04-20T19:48:46.674Z,101204.39
2018-04-20T19:51:12.519Z,101203.56
2018-04-20T19:53:39.055Z,101202.87
2018-04-20T19:56:04.952Z,101203.66
2018-04-20T19:58:30.853Z,101210.26
2018-04-20T20:00:56.749Z,101212.48
2018-04-20T20:03:22.640Z,101209.44
2018-04-20T20:05:49.533Z,101209.80
2018-04-20T20:08:15.410Z,101204.71
2018-04-20T20:10:41.293Z,101203.25
2018-04-20T20:13:07.149Z,101200.02
2018-04-20T20:15:33.055Z,101202.75
2018-04-20T20:17:58.936Z,101197.59
2018-04-20T20:20:24.791Z,101200.13
2018-04-20T20:22:50.672Z,101192.66
2018-04-20T20:25:16.539Z,101188.65
2018-04-20T20:27:42.417Z,101193.33
2018-04-20T20:30:08.330Z,101188.39
2018-04-20T20:32:34.233Z,101188.95
2018-04-20T20:35:00.136Z,101188.44
2018-04-20T20:37:26.004Z,101181.34
2018-04-20T20:39:51.922Z,101184.47
2018-04-20T20:42:17.805Z,101184.64
2018-04-20T20:44:43.670Z,101178.94
2018-04-20T20:47:09.518Z,101187.27
2018-04-20T20:49:35.438Z,101178.60
2018-04-20T20:52:01.303Z,101177.95
2018-04-20T20:54:27.182Z,101182.75
2018-04-20T20:56:53.102Z,101184.80
2018-04-20T20:59:18.999Z,101181.98
2018-04-20T21:01:45.842Z,101186.22
2018-04-20T21:04:11.815Z,101210.59
2018-04-20T21:06:37.698Z,101198.48
2018-04-20T21:09:03.593Z,101190.66
2018-04-20T21:11:30.024Z,101200.77
2018-04-20T21:13:55.921Z,101204.78
2018-04-20T21:16:21.804Z,101205.49
2018-04-20T21:18:47.675Z,101210.53
2018-04-20T21:21:13.522Z,101204.74
2018-04-20T21:23:39.366Z,101210.73
2018-04-20T21:26:05.254Z,101211.15
2018-04-20T21:28:31.829Z,101215.22
2018-04-20T21:30:57.682Z,101214.95
2018-04-20T21:33:23.542Z,101216.55
2018-04-20T21:35:49.396Z,101217.38
2018-04-20T21:38:15.240Z,101215.58
2018-04-20T21:40:41.103Z,101213.92
2018-04-20T21:43:06.974Z,101214.89
2018-04-20T21:45:32.861Z,101215.11
2018-04-20T21:47:58.743Z,101217.00
2018-04-20T21:50:24.617Z,101216.17
2018-04-20T21:52:50.485Z,101210.56
2018-04-20T21:55:16.347Z,101219.91
2018-04-20T21:57:42.213Z,101222.12
2018-04-20T22:00:08.080Z,101219.13
2018-04-20T22:02:33.921Z,101221.20
2018-04-20T22:04:59.773Z,101224.18
2018-04-20T22:07:25.642Z,101218.06
2018-04-20T22:09:51.512Z,101217.30
2018-04-20T22:12:17.337Z,101210.96
2018-04-20T22:14:43.186Z,101220.86
2018-04-20T22:17:09.027Z,101220.24
2018-04-20T22:19:34.894Z,101220.40
2018-04-20T22:22:00.756Z,101219.66
2018-04-20T22:24:26.590Z,101216.43
2018-04-20T22:26:52.442Z,101218.76
2018-04-20T22:29:18.286Z,101221.66
2018-04-20T22:31:44.136Z,101220.58
2018-04-20T22:34:09.974Z,101219.68
2018-04-20T22:36:35.832Z,101224.85
2018-04-20T22:39:01.694Z,101228.33
2018-04-20T22:41:27.561Z,101233.48
2018-04-20T22:43:53.394Z,101228.48
2018-04-20T22:46:19.277Z,101230.00
2018-04-20T22:48:45.126Z,101232.33
2018-04-20T22:51:10.971Z,101236.94
2018-04-20T22:53:36.838Z,101228.83
2018-04-20T22:56:02.686Z,101240.21
2018-04-20T23:00:54.285Z,101235.72
2018-04-20T23:03:20.154Z,101235.68
2018-04-20T23:05:45.972Z,101232.38
2018-04-20T23:08:11.859Z,101234.63
2018-04-20T23:10:37.708Z,101237.78
2018-04-20T23:13:03.573Z,101240.98
2018-04-20T23:15:29.428Z,101240.75
2018-04-20T23:17:55.237Z,101239.82
2018-04-20T23:20:21.098Z,101237.50
2018-04-20T23:22:46.926Z,101241.84
2018-04-20T23:25:12.771Z,101243.28
2018-04-20T23:27:38.600Z,101245.26
2018-04-20T23:30:04.454Z,101250.52
2018-04-20T23:32:30.304Z,101248.91
2018-04-20T23:34:56.137Z,101248.86
2018-04-20T23:37:21.989Z,101248.13
2018-04-20T23:39:47.825Z,101247.23
2018-04-20T23:42:13.680Z,101244.47
2018-04-20T23:44:39.530Z,101243.52
2018-04-20T23:47:05.382Z,101241.10
2018-04-20T23:49:31.225Z,101241.80
2018-04-20T23:51:57.098Z,101240.83
2018-04-20T23:54:22.932Z,101239.73
2018-04-20T23:56:48.804Z,101238.20
2018-04-20T23:59:15.310Z,101240.86
